createdAt,value
2018-02-19T00:00:54.538Z,-0.32
2018-02-19T00:03:21.104Z,-0.28
2018-02-19T00:05:47.756Z,-0.40
2018-02-19T00:08:15.111Z,-0.42
2018-02-19T00:10:41.705Z,-0.28
2018-02-19T00:13:08.331Z,-0.21
2018-02-19T00:15:34.920Z,-0.28
2018-02-19T00:18:01.534Z,-0.42
2018-02-19T00:20:28.103Z,-0.43
2018-02-19T00:22:54.709Z,-0.38
2018-02-19T00:25:21.322Z,-0.19
2018-02-19T00:27:47.926Z,-0.17
2018-02-19T00:30:14.539Z,-0.25
2018-02-19T00:32:41.092Z,-0.34
2018-02-19T00:35:07.684Z,-0.47
2018-02-19T00:37:34.338Z,-0.49
2018-02-19T00:40:00.906Z,-0.47
2018-02-19T00:42:27.542Z,-0.19
2018-02-19T00:44:54.179Z,-0.23
2018-02-19T00:47:20.803Z,-0.26
2018-02-19T00:49:47.380Z,-0.14
2018-02-19T00:52:13.976Z,-0.23
2018-02-19T00:54:41.297Z,-0.41
2018-02-19T00:57:08.679Z,-0.61
2018-02-19T00:59:35.283Z,-0.46
2018-02-19T01:02:01.875Z,-0.38
2018-02-19T01:04:29.246Z,-0.34
2018-02-19T01:06:55.850Z,-0.51
2018-02-19T01:09:22.443Z,-0.62
2018-02-19T01:11:49.083Z,-0.68
2018-02-19T01:14:15.657Z,-0.76
2018-02-19T01:16:42.278Z,-0.73
2018-02-19T01:19:08.885Z,-0.75
2018-02-19T01:21:35.451Z,-0.59
2018-02-19T01:24:02.093Z,-0.51
2018-02-19T01:26:28.650Z,-0.52
2018-02-19T01:28:55.994Z,-0.47
2018-02-19T01:31:22.576Z,-0.39
2018-02-19T01:33:49.176Z,-0.46
2018-02-19T01:36:16.524Z,-0.51
2018-02-19T01:38:43.213Z,-0.52
2018-02-19T01:41:10.626Z,-0.60
2018-02-19T01:43:37.275Z,-0.64
2018-02-19T01:46:04.616Z,-0.80
2018-02-19T01:48:31.187Z,-0.91
2018-02-19T01:50:57.755Z,-0.84
2018-02-19T01:53:24.410Z,-0.69
2018-02-19T01:55:50.966Z,-0.51
2018-02-19T01:58:17.570Z,-0.59
2018-02-19T02:00:44.159Z,-0.68
2018-02-19T02:03:11.491Z,-1.00
2018-02-19T02:05:38.046Z,-0.98
2018-02-19T02:08:05.355Z,-1.07
2018-02-19T02:10:32.673Z,-1.26
2018-02-19T02:12:59.254Z,-1.44
2018-02-19T02:15:25.827Z,-1.49
2018-02-19T02:17:53.118Z,-1.56
2018-02-19T02:20:19.698Z,-1.55
2018-02-19T02:22:47.018Z,-1.60
2018-02-19T02:25:13.656Z,-1.53
2018-02-19T02:27:40.226Z,-1.41
2018-02-19T02:30:06.784Z,-1.34
2018-02-19T02:32:33.396Z,-1.37
2018-02-19T02:34:59.981Z,-1.35
2018-02-19T02:37:26.590Z,-1.33
2018-02-19T02:39:53.202Z,-1.30
2018-02-19T02:42:19.786Z,-1.15
2018-02-19T02:44:46.350Z,-1.14
2018-02-19T02:47:12.937Z,-1.12
2018-02-19T02:49:39.515Z,-1.02
2018-02-19T02:52:06.119Z,-0.94
2018-02-19T02:54:32.715Z,-1.07
2018-02-19T02:56:59.282Z,-1.05
2018-02-19T02:59:26.624Z,-1.07
2018-02-19T03:01:53.187Z,-1.23
2018-02-19T03:04:19.727Z,-1.39
2018-02-19T03:06:46.316Z,-1.31
2018-02-19T03:09:12.887Z,-1.23
2018-02-19T03:11:39.470Z,-1.22
2018-02-19T03:14:06.016Z,-1.15
2018-02-19T03:16:33.506Z,-1.00
2018-02-19T03:19:00.897Z,-0.96
2018-02-19T03:21:28.239Z,-0.89
2018-02-19T03:23:55.238Z,-1.01
2018-02-19T03:26:22.569Z,-1.05
2018-02-19T03:28:49.123Z,-1.15
2018-02-19T03:31:15.863Z,-1.05
2018-02-19T03:33:42.466Z,-1.10
2018-02-19T03:36:09.090Z,-1.12
2018-02-19T03:38:35.675Z,-0.98
2018-02-19T03:41:02.251Z,-0.97
2018-02-19T03:43:29.619Z,-1.07
2018-02-19T03:45:56.214Z,-1.05
2018-02-19T03:48:22.851Z,-1.03
2018-02-19T03:50:49.407Z,-1.00
2018-02-19T03:53:16.734Z,-0.82
2018-02-19T03:55:44.036Z,-0.94
2018-02-19T03:58:10.714Z,-0.99
2018-02-19T04:00:37.277Z,-0.95
2018-02-19T04:03:03.878Z,-0.97
2018-02-19T04:05:30.460Z,-0.92
2018-02-19T04:07:58.023Z,-0.81
2018-02-19T04:10:24.629Z,-0.84
2018-02-19T04:12:51.217Z,-0.90
2018-02-19T04:15:17.833Z,-0.89
2018-02-19T04:17:44.440Z,-0.93
2018-02-19T04:20:11.087Z,-0.97
2018-02-19T04:22:37.649Z,-0.91
2018-02-19T04:25:04.333Z,-0.97
2018-02-19T04:27:30.922Z,-0.91
2018-02-19T04:29:58.261Z,-0.91
2018-02-19T04:32:24.828Z,-0.82
2018-02-19T04:34:51.410Z,-0.75
2018-02-19T04:37:18.008Z,-0.78
2018-02-19T04:39:44.623Z,-0.75
2018-02-19T04:42:11.222Z,-0.79
2018-02-19T04:44:37.814Z,-0.89
2018-02-19T04:47:04.547Z,-0.99
2018-02-19T04:49:31.167Z,-0.97
2018-02-19T04:51:57.755Z,-0.88
2018-02-19T04:54:24.323Z,-1.05
2018-02-19T04:56:51.687Z,-1.23
2018-02-19T04:59:18.750Z,-1.35
2018-02-19T05:01:45.359Z,-1.36
2018-02-19T05:04:12.768Z,-1.17
2018-02-19T05:06:39.342Z,-1.18
2018-02-19T05:09:06.659Z,-1.32
2018-02-19T05:11:33.255Z,-1.16
2018-02-19T05:14:00.650Z,-1.15
2018-02-19T05:16:27.927Z,-1.14
2018-02-19T05:18:54.526Z,-1.12
2018-02-19T05:21:21.135Z,-1.15
2018-02-19T05:23:48.460Z,-1.14
2018-02-19T05:26:15.802Z,-1.16
2018-02-19T05:28:42.439Z,-1.13
2018-02-19T05:31:09.058Z,-1.06
2018-02-19T05:33:35.638Z,-1.06
2018-02-19T05:36:03.791Z,-1.11
2018-02-19T05:38:30.353Z,-1.14
2018-02-19T05:40:56.944Z,-1.20
2018-02-19T05:43:23.513Z,-1.15
2018-02-19T05:45:50.087Z,-1.15
2018-02-19T05:48:16.722Z,-1.15
2018-02-19T05:50:43.275Z,-1.07
2018-02-19T05:53:09.838Z,-1.02
2018-02-19T05:55:36.499Z,-1.09
2018-02-19T05:58:03.200Z,-1.17
2018-02-19T06:00:29.777Z,-1.19
2018-02-19T06:02:56.324Z,-1.12
2018-02-19T06:05:23.699Z,-1.30
2018-02-19T06:07:50.253Z,-1.46
2018-02-19T06:10:16.818Z,-1.26
2018-02-19T06:12:44.171Z,-1.34
2018-02-19T06:15:10.738Z,-1.34
2018-02-19T06:17:38.080Z,-1.32
2018-02-19T06:20:04.686Z,-1.25
2018-02-19T06:22:31.243Z,-1.03
2018-02-19T06:24:57.823Z,-0.94
2018-02-19T06:27:24.366Z,-1.01
2018-02-19T06:29:50.931Z,-1.02
2018-02-19T06:32:17.610Z,-1.07
2018-02-19T06:34:44.187Z,-1.17
2018-02-19T06:37:10.773Z,-1.30
2018-02-19T06:39:37.390Z,-1.31
2018-02-19T06:42:03.956Z,-1.28
2018-02-19T06:44:31.307Z,-1.38
2018-02-19T06:46:57.917Z,-1.34
2018-02-19T06:49:24.466Z,-1.35
2018-02-19T06:51:51.150Z,-1.38
2018-02-19T06:54:17.751Z,-1.39
2018-02-19T06:56:44.351Z,-1.31
2018-02-19T06:59:10.960Z,-1.23
2018-02-19T07:01:37.603Z,-1.16
2018-02-19T07:04:04.211Z,-1.20
2018-02-19T07:06:31.526Z,-1.29
2018-02-19T07:08:58.138Z,-1.22
2018-02-19T07:11:24.699Z,-1.27
2018-02-19T07:13:51.244Z,-1.32
2018-02-19T07:16:17.823Z,-1.43
2018-02-19T07:18:44.417Z,-1.29
2018-02-19T07:21:10.994Z,-1.28
2018-02-19T07:23:37.611Z,-1.37
2018-02-19T07:26:04.263Z,-1.41
2018-02-19T07:28:31.602Z,-1.36
2018-02-19T07:30:59.066Z,-1.29
2018-02-19T07:33:26.359Z,-1.34
2018-02-19T07:35:52.950Z,-1.13
2018-02-19T07:38:20.358Z,-1.28
2018-02-19T07:40:46.924Z,-1.22
2018-02-19T07:43:13.524Z,-1.10
2018-02-19T07:45:40.149Z,-1.06
2018-02-19T07:48:06.772Z,-0.97
2018-02-19T07:50:33.386Z,-0.85
2018-02-19T07:52:59.994Z,-0.77
2018-02-19T07:55:26.559Z,-0.48
2018-02-19T07:57:53.167Z,-0.41
2018-02-19T08:00:19.739Z,-0.29
2018-02-19T08:02:47.096Z,-0.31
2018-02-19T08:05:14.388Z,-0.24
2018-02-19T08:07:41.738Z,-0.31
2018-02-19T08:10:08.322Z,-0.35
2018-02-19T08:12:34.904Z,-0.36
2018-02-19T08:15:01.603Z,-0.31
2018-02-19T08:17:28.937Z,-0.30
2018-02-19T08:19:56.319Z,-0.48
2018-02-19T08:22:23.662Z,-0.44
2018-02-19T08:24:50.240Z,-0.44
2018-02-19T08:27:16.874Z,-0.35
2018-02-19T08:29:43.532Z,-0.19
2018-02-19T08:32:10.065Z,-0.11
2018-02-19T08:34:36.700Z,-0.22
2018-02-19T08:37:03.964Z,-0.39
2018-02-19T08:39:30.535Z,-0.54
2018-02-19T08:41:57.127Z,-0.42
2018-02-19T08:44:23.703Z,-0.26
2018-02-19T08:46:50.259Z,-0.20
2018-02-19T08:49:16.851Z,-0.08
2018-02-19T08:51:43.431Z,0.02
2018-02-19T08:54:10.814Z,0.10
2018-02-19T08:56:37.390Z,-0.03
2018-02-19T08:59:03.965Z,0.01
2018-02-19T09:01:31.301Z,0.10
2018-02-19T09:03:57.913Z,0.08
2018-02-19T09:06:24.533Z,0.13
2018-02-19T09:08:51.106Z,0.05
2018-02-19T09:11:17.712Z,-0.01
2018-02-19T09:13:44.298Z,0.16
2018-02-19T09:16:11.610Z,0.38
2018-02-19T09:18:38.212Z,0.52
2018-02-19T09:21:04.819Z,0.34
2018-02-19T09:23:32.150Z,0.19
2018-02-19T09:25:58.774Z,0.31
2018-02-19T09:28:25.375Z,0.51
2018-02-19T09:30:51.967Z,0.72
2018-02-19T09:33:18.843Z,0.55
2018-02-19T09:35:45.470Z,0.63
2018-02-19T09:38:12.792Z,0.66
2018-02-19T09:40:39.370Z,0.64
2018-02-19T09:43:06.711Z,0.75
2018-02-19T09:45:34.115Z,0.88
2018-02-19T09:48:00.853Z,0.71
2018-02-19T09:50:27.457Z,0.74
2018-02-19T09:52:54.107Z,0.68
2018-02-19T09:55:20.671Z,0.48
2018-02-19T09:57:47.251Z,0.51
2018-02-19T10:00:14.583Z,0.35
2018-02-19T10:02:41.216Z,0.41
2018-02-19T10:05:07.768Z,0.50
2018-02-19T10:07:34.398Z,0.55
2018-02-19T10:10:00.971Z,0.65
2018-02-19T10:12:27.738Z,0.77
2018-02-19T10:14:54.304Z,0.78
2018-02-19T10:17:20.847Z,0.80
2018-02-19T10:19:47.574Z,0.76
2018-02-19T10:22:14.147Z,0.80
2018-02-19T10:24:41.448Z,0.88
2018-02-19T10:27:08.049Z,0.71
2018-02-19T10:29:34.601Z,0.75
2018-02-19T10:32:01.474Z,0.82
2018-02-19T10:34:28.089Z,0.64
2018-02-19T10:36:54.671Z,0.64
2018-02-19T10:39:21.267Z,0.82
2018-02-19T10:41:47.870Z,0.81
2018-02-19T10:44:14.560Z,1.13
2018-02-19T10:46:41.239Z,1.09
2018-02-19T10:49:08.523Z,1.23
2018-02-19T10:51:35.873Z,0.97
2018-02-19T10:54:03.186Z,1.10
2018-02-19T10:56:30.079Z,0.86
2018-02-19T10:58:56.655Z,0.86
2018-02-19T11:01:23.264Z,0.98
2018-02-19T11:03:49.923Z,1.09
2018-02-19T11:06:16.507Z,1.12
2018-02-19T11:08:43.352Z,1.28
2018-02-19T11:11:09.907Z,1.37
2018-02-19T11:13:36.523Z,1.38
2018-02-19T11:16:03.117Z,1.50
2018-02-19T11:18:29.672Z,1.19
2018-02-19T11:20:57.177Z,0.79
2018-02-19T11:23:23.760Z,1.03
2018-02-19T11:25:50.373Z,1.12
2018-02-19T11:28:16.961Z,1.16
2018-02-19T11:30:43.547Z,1.35
2018-02-19T11:33:10.142Z,1.60
2018-02-19T11:35:36.731Z,1.39
2018-02-19T11:38:03.339Z,1.36
2018-02-19T11:40:30.015Z,1.41
2018-02-19T11:42:56.601Z,1.22
2018-02-19T11:45:23.232Z,1.31
2018-02-19T11:47:49.990Z,1.45
2018-02-19T11:50:16.543Z,1.47
2018-02-19T11:52:43.134Z,1.42
2018-02-19T11:55:09.709Z,1.61
2018-02-19T11:57:36.351Z,1.68
2018-02-19T12:00:02.988Z,1.61
2018-02-19T12:02:30.384Z,1.57
2018-02-19T12:04:57.683Z,1.57
2018-02-19T12:07:24.280Z,1.70
2018-02-19T12:09:50.855Z,1.55
2018-02-19T12:12:17.431Z,1.30
2018-02-19T12:14:44.063Z,1.06
2018-02-19T12:17:10.658Z,1.14
2018-02-19T12:19:37.268Z,1.17
2018-02-19T12:22:03.891Z,0.99
2018-02-19T12:24:31.227Z,1.40
2018-02-19T12:26:58.561Z,1.40
2018-02-19T12:29:25.127Z,1.41
2018-02-19T12:31:52.424Z,1.45
2018-02-19T12:34:19.009Z,1.41
2018-02-19T12:36:45.842Z,1.19
2018-02-19T12:39:12.411Z,1.16
2018-02-19T12:41:39.009Z,1.02
2018-02-19T12:44:05.614Z,0.86
2018-02-19T12:46:32.226Z,0.88
2018-02-19T12:48:58.811Z,0.85
2018-02-19T12:51:25.399Z,1.06
2018-02-19T12:53:51.975Z,1.24
2018-02-19T12:56:18.592Z,1.31
2018-02-19T12:58:45.164Z,1.20
2018-02-19T13:01:11.759Z,1.36
2018-02-19T13:03:38.323Z,1.44
2018-02-19T13:06:05.042Z,1.56
2018-02-19T13:08:31.630Z,1.47
2018-02-19T13:10:58.943Z,1.50
2018-02-19T13:13:25.552Z,1.40
2018-02-19T13:15:52.149Z,1.50
2018-02-19T13:18:18.881Z,1.41
2018-02-19T13:20:46.197Z,1.43
2018-02-19T13:23:12.770Z,1.38
2018-02-19T13:25:39.346Z,1.46
2018-02-19T13:28:06.033Z,1.39
2018-02-19T13:30:32.611Z,1.36
2018-02-19T13:32:59.987Z,1.46
2018-02-19T13:35:26.624Z,1.55
2018-02-19T13:37:53.400Z,1.59
2018-02-19T13:40:19.985Z,1.55
2018-02-19T13:42:47.305Z,1.70
2018-02-19T13:45:14.030Z,1.68
2018-02-19T13:47:40.596Z,1.55
2018-02-19T13:50:07.919Z,1.33
2018-02-19T13:52:34.654Z,1.28
2018-02-19T13:55:01.284Z,1.32
2018-02-19T13:57:28.226Z,1.36
2018-02-19T13:59:55.584Z,1.47
2018-02-19T14:02:22.187Z,1.54
2018-02-19T14:04:49.061Z,1.56
2018-02-19T14:07:15.628Z,1.46
2018-02-19T14:09:42.968Z,1.47
2018-02-19T14:12:09.592Z,1.40
2018-02-19T14:14:36.192Z,1.33
2018-02-19T14:17:02.787Z,1.31
2018-02-19T14:19:29.375Z,1.24
2018-02-19T14:21:55.990Z,1.20
2018-02-19T14:24:23.321Z,1.10
2018-02-19T14:26:50.672Z,1.07
2018-02-19T14:29:17.220Z,1.15
2018-02-19T14:31:43.887Z,1.15
2018-02-19T14:34:10.494Z,1.13
2018-02-19T14:36:37.078Z,0.91
2018-02-19T14:39:03.729Z,0.74
2018-02-19T14:41:30.305Z,0.53
2018-02-19T14:43:56.859Z,0.50
2018-02-19T14:46:24.248Z,0.50
2018-02-19T14:48:50.835Z,0.64
2018-02-19T14:51:17.505Z,0.69
2018-02-19T14:53:44.084Z,0.74
2018-02-19T14:56:10.666Z,0.80
2018-02-19T14:58:38.002Z,0.95
2018-02-19T15:01:06.288Z,0.77
2018-02-19T15:03:33.006Z,0.66
2018-02-19T15:06:00.419Z,0.54
2018-02-19T15:08:26.980Z,0.58
2018-02-19T15:10:53.707Z,0.59
2018-02-19T15:13:20.282Z,0.47
2018-02-19T15:15:47.222Z,0.49
2018-02-19T15:18:13.852Z,0.61
2018-02-19T15:20:40.435Z,0.61
2018-02-19T15:23:07.059Z,0.70
2018-02-19T15:25:34.384Z,0.57
2018-02-19T15:28:00.973Z,0.67
2018-02-19T15:30:27.611Z,0.68
2018-02-19T15:32:54.179Z,0.59
2018-02-19T15:35:20.745Z,0.46
2018-02-19T15:37:48.107Z,0.21
2018-02-19T15:40:14.695Z,0.12
2018-02-19T15:42:41.295Z,0.15
2018-02-19T15:45:07.959Z,0.20
2018-02-19T15:47:34.574Z,0.13
2018-02-19T15:50:01.187Z,-0.02
2018-02-19T15:52:28.534Z,0.02
2018-02-19T15:54:55.154Z,0.12
2018-02-19T15:57:21.712Z,0.29
2018-02-19T15:59:48.311Z,0.26
2018-02-19T16:02:14.922Z,0.21
2018-02-19T16:04:41.539Z,0.20
2018-02-19T16:07:08.150Z,0.07
2018-02-19T16:09:35.506Z,0.11
2018-02-19T16:12:02.858Z,0.15
2018-02-19T16:14:29.464Z,0.07
2018-02-19T16:16:56.067Z,0.13
2018-02-19T16:19:22.679Z,0.13
2018-02-19T16:21:50.024Z,0.13
2018-02-19T16:24:16.586Z,0.12
2018-02-19T16:26:43.875Z,0.08
2018-02-19T16:29:10.474Z,-0.04
2018-02-19T16:31:37.071Z,-0.09
2018-02-19T16:34:04.463Z,-0.09
2018-02-19T16:36:31.013Z,-0.07
2018-02-19T16:38:57.612Z,-0.03
2018-02-19T16:41:24.956Z,0.01
2018-02-19T16:43:51.575Z,0.05
2018-02-19T16:46:18.207Z,0.03
2018-02-19T16:48:44.767Z,-0.11
2018-02-19T16:51:12.169Z,-0.12
2018-02-19T16:53:38.725Z,-0.06
2018-02-19T16:56:05.286Z,-0.02
2018-02-19T16:58:31.884Z,-0.07
2018-02-19T17:00:58.507Z,-0.12
2018-02-19T17:03:25.110Z,-0.18
2018-02-19T17:05:53.250Z,-0.13
2018-02-19T17:08:19.853Z,-0.17
2018-02-19T17:10:46.463Z,-0.12
2018-02-19T17:13:13.827Z,-0.11
2018-02-19T17:15:41.307Z,0.07
2018-02-19T17:18:07.879Z,0.03
2018-02-19T17:20:34.418Z,-0.18
2018-02-19T17:23:01.123Z,-0.27
2018-02-19T17:25:27.753Z,-0.33
2018-02-19T17:27:54.460Z,-0.31
2018-02-19T17:30:21.107Z,-0.27
2018-02-19T17:32:48.439Z,-0.29
2018-02-19T17:35:15.842Z,-0.26
2018-02-19T17:37:42.429Z,-0.26
2018-02-19T17:40:09.078Z,-0.22
2018-02-19T17:42:36.485Z,-0.31
2018-02-19T17:45:03.162Z,-0.30
2018-02-19T17:47:29.747Z,-0.29
2018-02-19T17:49:56.395Z,-0.43
2018-02-19T17:52:22.990Z,-0.48
2018-02-19T17:54:50.355Z,-0.45
2018-02-19T17:57:16.956Z,-0.45
2018-02-19T17:59:43.640Z,-0.50
2018-02-19T18:02:10.265Z,-0.50
2018-02-19T18:04:36.910Z,-0.44
2018-02-19T18:07:03.515Z,-0.39
2018-02-19T18:09:30.071Z,-0.44
2018-02-19T18:11:57.406Z,-0.46
2018-02-19T18:14:23.987Z,-0.42
2018-02-19T18:16:50.588Z,-0.44
2018-02-19T18:19:17.155Z,-0.39
2018-02-19T18:21:43.828Z,-0.34
2018-02-19T18:24:10.432Z,-0.49
2018-02-19T18:26:37.106Z,-0.54
2018-02-19T18:29:03.731Z,-0.49
2018-02-19T18:31:30.299Z,-0.38
2018-02-19T18:33:56.942Z,-0.34
2018-02-19T18:36:23.537Z,-0.38
2018-02-19T18:38:50.125Z,-0.38
2018-02-19T18:41:17.509Z,-0.42
2018-02-19T18:43:44.095Z,-0.46
2018-02-19T18:46:10.703Z,-0.43
2018-02-19T18:48:37.316Z,-0.41
2018-02-19T18:51:03.982Z,-0.44
2018-02-19T18:53:30.576Z,-0.40
2018-02-19T18:55:57.913Z,-0.36
2018-02-19T18:58:24.508Z,-0.44
2018-02-19T19:00:51.087Z,-0.62
2018-02-19T19:03:18.698Z,-0.64
2018-02-19T19:05:45.323Z,-0.81
2018-02-19T19:08:30.531Z,-0.92
2018-02-19T19:10:57.095Z,-0.95
2018-02-19T19:13:23.719Z,-0.89
2018-02-19T19:15:50.308Z,-0.75
2018-02-19T19:18:16.923Z,-0.70
2018-02-19T19:20:44.291Z,-0.68
2018-02-19T19:23:10.872Z,-0.58
2018-02-19T19:25:37.471Z,-0.52
2018-02-19T19:28:04.103Z,-0.32
2018-02-19T19:30:30.724Z,-0.43
2018-02-19T19:32:58.047Z,-0.46
2018-02-19T19:35:24.739Z,-0.46
2018-02-19T19:37:51.378Z,-0.46
2018-02-19T19:40:17.996Z,-0.44
2018-02-19T19:42:44.602Z,-0.42
2018-02-19T19:45:11.283Z,-0.29
2018-02-19T19:47:37.908Z,-0.27
2018-02-19T19:50:05.228Z,-0.22
2018-02-19T19:52:31.900Z,-0.29
2018-02-19T19:54:58.516Z,-0.15
2018-02-19T19:57:25.127Z,-0.18
2018-02-19T19:59:51.760Z,-0.03
2018-02-19T20:02:18.386Z,-0.08
2018-02-19T20:04:45.022Z,-0.08
2018-02-19T20:07:11.755Z,-0.26
2018-02-19T20:09:38.394Z,-0.51
2018-02-19T20:12:05.000Z,-0.56
2018-02-19T20:14:31.591Z,-0.47
2018-02-19T20:16:59.028Z,-0.54
2018-02-19T20:19:25.727Z,-0.34
2018-02-19T20:21:53.101Z,-0.46
2018-02-19T20:24:19.743Z,-0.35
2018-02-19T20:26:46.429Z,-0.41
2018-02-19T20:29:13.130Z,-0.47
2018-02-19T20:31:39.748Z,-0.29
2018-02-19T20:34:06.367Z,-0.29
2018-02-19T20:36:33.022Z,-0.52
2018-02-19T20:38:59.615Z,-0.30
2018-02-19T20:41:26.273Z,-0.44
2018-02-19T20:43:52.882Z,-0.42
2018-02-19T20:46:19.479Z,-0.48
2018-02-19T20:48:46.373Z,-0.58
2018-02-19T20:51:12.974Z,-0.53
2018-02-19T20:53:39.566Z,-0.50
2018-02-19T20:56:06.975Z,-0.61
2018-02-19T20:58:33.828Z,-0.31
2018-02-19T21:01:01.202Z,-0.13
2018-02-19T21:03:27.788Z,-0.28
2018-02-19T21:05:54.482Z,-0.35
2018-02-19T21:08:21.843Z,-0.37
2018-02-19T21:10:49.212Z,-0.16
2018-02-19T21:13:15.808Z,-0.39
2018-02-19T21:15:44.130Z,-0.39
2018-02-19T21:18:10.765Z,-0.46
2018-02-19T21:20:37.362Z,-0.43
2018-02-19T21:23:04.012Z,-0.50
2018-02-19T21:25:30.614Z,-0.50
2018-02-19T21:27:57.239Z,-0.41
2018-02-19T21:30:23.921Z,-0.45
2018-02-19T21:32:50.576Z,-0.48
2018-02-19T21:35:17.162Z,-0.54
2018-02-19T21:37:43.812Z,-0.44
2018-02-19T21:40:10.486Z,-0.07
2018-02-19T21:42:37.824Z,-0.39
2018-02-19T21:45:04.449Z,-0.29
2018-02-19T21:47:31.010Z,-0.43
2018-02-19T21:49:57.642Z,-0.45
2018-02-19T21:52:24.264Z,-0.47
2018-02-19T21:54:50.876Z,-0.50
2018-02-19T21:57:17.478Z,-0.53
2018-02-19T21:59:44.992Z,-0.58
2018-02-19T22:02:11.607Z,-0.60
2018-02-19T22:04:38.239Z,-0.65
2018-02-19T22:07:04.859Z,-0.64
2018-02-19T22:09:31.478Z,-0.65
2018-02-19T22:11:58.956Z,-0.65
2018-02-19T22:14:26.537Z,-0.65
2018-02-19T22:16:53.102Z,-0.66
2018-02-19T22:19:19.693Z,-0.64
2018-02-19T22:21:46.292Z,-0.68
2018-02-19T22:24:12.904Z,-0.68
2018-02-19T22:26:40.067Z,-0.75
2018-02-19T22:29:06.675Z,-0.68
2018-02-19T22:31:33.346Z,-0.71
2018-02-19T22:33:59.951Z,-0.74
2018-02-19T22:36:26.614Z,-0.71
2018-02-19T22:38:53.205Z,-0.71
2018-02-19T22:41:19.782Z,-0.65
2018-02-19T22:43:46.365Z,-0.58
2018-02-19T22:46:13.755Z,-0.61
2018-02-19T22:48:40.343Z,-0.67
2018-02-19T22:51:06.911Z,-0.66
2018-02-19T22:53:33.550Z,-0.62
2018-02-19T22:56:00.137Z,-0.71
2018-02-19T22:58:27.470Z,-0.74
2018-02-19T23:00:54.058Z,-0.74
2018-02-19T23:03:20.611Z,-0.80
2018-02-19T23:05:47.195Z,-0.87
2018-02-19T23:08:13.763Z,-0.87
2018-02-19T23:10:41.073Z,-0.85
2018-02-19T23:13:07.656Z,-0.82
2018-02-19T23:15:34.259Z,-0.76
2018-02-19T23:18:00.891Z,-0.76
2018-02-19T23:20:27.512Z,-0.76
2018-02-19T23:22:54.878Z,-0.77
2018-02-19T23:25:21.563Z,-0.80
2018-02-19T23:27:48.138Z,-0.80
2018-02-19T23:30:14.730Z,-0.83
2018-02-19T23:32:41.309Z,-0.88
2018-02-19T23:35:07.918Z,-0.86
2018-02-19T23:37:34.459Z,-0.81
2018-02-19T23:40:01.038Z,-0.82
2018-02-19T23:42:27.601Z,-0.80
2018-02-19T23:44:54.218Z,-0.74
2018-02-19T23:47:20.794Z,-0.77
2018-02-19T23:49:47.411Z,-0.74
2018-02-19T23:52:14.697Z,-0.75
2018-02-19T23:54:41.268Z,-0.58
2018-02-19T23:57:07.911Z,-0.68
2018-02-19T23:59:34.454Z,-0.71
